createdAt,value
2023-05-07T00:04:45.308Z,15.50
2023-05-07T00:09:47.657Z,15.50
2023-05-07T00:14:49.934Z,15.50
2023-05-07T00:19:53.713Z,15.50
2023-05-07T00:24:56.107Z,15.40
2023-05-07T00:29:58.276Z,15.40
2023-05-07T00:35:01.555Z,15.30
2023-05-07T00:40:06.073Z,15.30
2023-05-07T00:45:09.444Z,15.50
2023-05-07T00:50:14.154Z,15.40
2023-05-07T00:55:16.771Z,15.10
2023-05-07T01:00:19.291Z,15.30
2023-05-07T01:05:25.680Z,15.30
2023-05-07T01:10:29.243Z,15.20
2023-05-07T01:15:31.418Z,15.20
2023-05-07T01:20:34.670Z,15.30
2023-05-07T01:25:38.687Z,15.30
2023-05-07T01:30:44.399Z,15.40
2023-05-07T01:35:49.540Z,15.30
2023-05-07T01:40:53.158Z,15.20
2023-05-07T01:45:56.224Z,15.00
2023-05-07T01:50:58.436Z,14.80
2023-05-07T01:56:01.891Z,14.60
2023-05-07T02:01:04.458Z,14.40
2023-05-07T02:06:06.707Z,14.50
2023-05-07T02:11:10.088Z,14.40
2023-05-07T02:16:12.062Z,14.00
2023-05-07T02:21:14.346Z,13.80
2023-05-07T02:26:18.313Z,13.40
2023-05-07T02:31:20.527Z,13.20
2023-05-07T02:36:22.209Z,13.00
2023-05-07T02:41:25.770Z,12.90
2023-05-07T02:46:27.933Z,12.80
2023-05-07T02:51:29.936Z,12.60
2023-05-07T02:56:33.222Z,12.50
2023-05-07T03:01:34.956Z,12.50
2023-05-07T03:06:36.828Z,12.50
2023-05-07T03:11:40.323Z,12.50
2023-05-07T03:16:42.475Z,12.80
2023-05-07T03:21:44.256Z,12.50
2023-05-07T03:26:47.914Z,12.40
2023-05-07T03:31:50.138Z,12.30
2023-05-07T03:36:52.130Z,12.20
2023-05-07T03:41:55.576Z,12.20
2023-05-07T03:46:57.664Z,12.10
2023-05-07T03:51:59.613Z,12.20
2023-05-07T03:57:03.197Z,12.70
2023-05-07T04:02:05.723Z,12.70
2023-05-07T04:07:08.499Z,12.50
2023-05-07T04:12:11.885Z,12.30
2023-05-07T04:17:14.262Z,12.20
2023-05-07T04:22:16.045Z,12.40
2023-05-07T04:27:19.218Z,12.20
2023-05-07T04:32:21.404Z,12.10
2023-05-07T04:37:23.372Z,12.00
2023-05-07T04:42:26.722Z,12.00
2023-05-07T04:47:28.705Z,12.00
2023-05-07T04:52:30.908Z,12.10
2023-05-07T04:57:33.965Z,12.10
2023-05-07T05:02:35.868Z,12.20
2023-05-07T05:07:37.482Z,12.20
2023-05-07T05:12:40.661Z,12.40
2023-05-07T05:17:42.918Z,12.70
2023-05-07T05:22:44.981Z,12.90
2023-05-07T05:27:49.826Z,13.10
2023-05-07T05:32:52.151Z,13.30
2023-05-07T05:37:54.119Z,13.50
2023-05-07T05:42:57.572Z,13.60
2023-05-07T05:47:59.370Z,14.00
2023-05-07T05:53:01.671Z,14.40
2023-05-07T05:58:05.356Z,14.90
2023-05-07T06:03:07.557Z,15.50
2023-05-07T06:08:10.175Z,16.10
2023-05-07T06:13:13.568Z,16.70
2023-05-07T06:18:16.113Z,17.30
2023-05-07T06:23:18.292Z,17.50
2023-05-07T06:28:21.881Z,17.00
2023-05-07T06:33:23.889Z,16.80
2023-05-07T06:38:26.220Z,16.70
2023-05-07T06:43:29.592Z,16.60
2023-05-07T06:48:31.469Z,16.80
2023-05-07T06:53:33.287Z,16.70
2023-05-07T06:58:36.520Z,16.80
2023-05-07T07:03:38.336Z,16.90
2023-05-07T07:08:40.973Z,17.20
2023-05-07T07:13:44.584Z,17.40
2023-05-07T07:18:46.542Z,17.20
2023-05-07T07:23:48.670Z,17.40
2023-05-07T07:28:52.111Z,17.50
2023-05-07T07:33:54.211Z,17.50
2023-05-07T07:38:56.375Z,17.10
2023-05-07T07:44:00.058Z,17.20
2023-05-07T07:49:02.257Z,17.30
2023-05-07T07:54:04.153Z,17.40
2023-05-07T07:59:07.858Z,17.70
2023-05-07T08:04:09.787Z,17.80
2023-05-07T08:09:11.919Z,18.30
2023-05-07T08:14:16.880Z,18.80
2023-05-07T08:19:19.109Z,18.30
2023-05-07T08:24:21.367Z,18.70
2023-05-07T08:29:25.059Z,18.80
2023-05-07T08:34:27.034Z,18.70
2023-05-07T08:39:28.971Z,19.50
2023-05-07T08:44:36.455Z,19.60
2023-05-07T08:49:38.888Z,20.50
2023-05-07T08:54:41.517Z,21.30
2023-05-07T08:59:44.999Z,21.60
2023-05-07T09:04:47.528Z,22.10
2023-05-07T09:09:49.848Z,22.70
2023-05-07T09:14:53.802Z,22.80
2023-05-07T09:19:56.626Z,23.30
2023-05-07T09:24:58.934Z,23.40
2023-05-07T09:30:07.336Z,23.60
2023-05-07T09:35:18.260Z,23.80
2023-05-07T09:40:24.833Z,24.10
2023-05-07T09:45:29.840Z,24.40
2023-05-07T09:50:37.272Z,25.00
2023-05-07T09:55:40.895Z,25.20
2023-05-07T10:00:45.045Z,25.00
2023-05-07T10:05:48.667Z,23.70
2023-05-07T10:10:52.025Z,23.70
2023-05-07T10:15:57.309Z,24.50
2023-05-07T10:21:04.472Z,23.90
2023-05-07T10:26:08.743Z,24.40
2023-05-07T10:31:20.881Z,24.50
2023-05-07T10:36:24.863Z,24.70
2023-05-07T10:41:26.938Z,24.80
2023-05-07T10:46:33.432Z,24.80
2023-05-07T10:51:36.660Z,23.80
2023-05-07T10:56:39.184Z,24.10
2023-05-07T11:01:57.292Z,23.00
2023-05-07T11:07:28.133Z,22.30
2023-05-07T11:12:52.266Z,22.90
2023-05-07T11:17:59.907Z,22.40
2023-05-07T11:23:03.234Z,22.00
2023-05-07T11:28:11.400Z,21.30
2023-05-07T11:33:15.051Z,21.80
2023-05-07T11:38:17.261Z,23.10
2023-05-07T11:43:19.387Z,24.20
2023-05-07T11:48:24.570Z,25.10
2023-05-07T11:53:28.107Z,25.70
2023-05-07T11:58:30.277Z,25.50
2023-05-07T12:03:36.209Z,27.00
2023-05-07T12:08:40.113Z,27.90
2023-05-07T12:13:42.003Z,29.70
2023-05-07T12:18:46.465Z,30.60
2023-05-07T12:23:49.000Z,30.70
2023-05-07T12:28:51.077Z,31.40
2023-05-07T12:33:54.840Z,32.00
2023-05-07T12:38:57.486Z,32.40
2023-05-07T12:43:59.743Z,31.80
2023-05-07T12:49:03.472Z,33.00
2023-05-07T12:54:06.052Z,33.80
2023-05-07T12:59:08.021Z,32.10
2023-05-07T13:04:11.644Z,32.70
2023-05-07T13:09:13.747Z,33.70
2023-05-07T13:14:16.502Z,33.90
2023-05-07T13:19:19.938Z,32.90
2023-05-07T13:24:22.064Z,33.00
2023-05-07T13:29:29.676Z,33.40
2023-05-07T13:34:32.801Z,33.50
2023-05-07T13:39:34.558Z,34.20
2023-05-07T13:44:36.835Z,33.90
2023-05-07T13:49:40.434Z,34.70
2023-05-07T13:54:42.552Z,34.30
2023-05-07T13:59:44.627Z,34.20
2023-05-07T14:04:47.883Z,32.30
2023-05-07T14:09:49.937Z,31.20
2023-05-07T14:14:52.110Z,30.50
2023-05-07T14:19:55.935Z,30.10
2023-05-07T14:25:14.398Z,30.20
2023-05-07T14:30:18.022Z,30.40
2023-05-07T14:35:21.537Z,30.80
2023-05-07T14:40:23.739Z,30.90
2023-05-07T14:45:26.641Z,28.80
2023-05-07T14:50:30.521Z,25.80
2023-05-07T14:55:33.607Z,24.20
2023-05-07T15:00:37.641Z,23.40
2023-05-07T15:05:42.623Z,22.60
2023-05-07T15:10:44.466Z,22.20
2023-05-07T15:15:47.415Z,21.70
2023-05-07T15:20:50.957Z,21.50
2023-05-07T15:25:52.836Z,21.40
2023-05-07T15:30:56.286Z,21.20
2023-05-07T15:36:00.816Z,21.10
2023-05-07T15:41:03.020Z,20.80
2023-05-07T15:46:07.049Z,20.70
2023-05-07T15:51:11.640Z,20.50
2023-05-07T15:56:14.658Z,20.50
2023-05-07T16:01:17.667Z,20.50
2023-05-07T16:06:22.595Z,20.40
2023-05-07T16:11:25.228Z,20.30
2023-05-07T16:16:30.692Z,20.20
2023-05-07T16:21:36.194Z,19.40
2023-05-07T16:26:38.778Z,19.20
2023-05-07T16:31:41.495Z,18.90
2023-05-07T16:36:45.598Z,18.10
2023-05-07T16:41:49.983Z,17.50
2023-05-07T16:46:54.074Z,17.10
2023-05-07T16:51:58.680Z,16.90
2023-05-07T16:57:01.712Z,16.60
2023-05-07T17:02:04.459Z,16.60
2023-05-07T17:07:09.057Z,16.70
2023-05-07T17:12:11.571Z,16.60
2023-05-07T17:17:14.733Z,16.30
2023-05-07T17:22:20.997Z,15.80
2023-05-07T17:27:32.286Z,15.70
2023-05-07T17:32:35.899Z,15.60
2023-05-07T17:37:40.201Z,15.30
2023-05-07T17:42:42.801Z,15.50
2023-05-07T17:47:45.741Z,15.60
2023-05-07T17:52:50.112Z,15.50
2023-05-07T17:57:53.233Z,15.30
2023-05-07T18:02:55.904Z,15.00
2023-05-07T18:08:00.222Z,15.00
2023-05-07T18:13:03.202Z,14.90
2023-05-07T18:18:06.580Z,14.80
2023-05-07T18:23:11.437Z,14.90
2023-05-07T18:28:14.481Z,14.90
2023-05-07T18:33:19.921Z,14.90
2023-05-07T18:38:24.794Z,14.80
2023-05-07T18:43:28.158Z,14.80
2023-05-07T18:48:30.973Z,14.70
2023-05-07T18:53:35.264Z,14.70
2023-05-07T18:58:38.048Z,14.60
2023-05-07T19:03:41.133Z,14.50
2023-05-07T19:08:45.624Z,14.30
2023-05-07T19:14:12.510Z,14.40
2023-05-07T19:19:42.054Z,14.30
2023-05-07T19:25:55.756Z,14.40
2023-05-07T19:31:21.685Z,14.50
2023-05-07T19:36:59.440Z,14.60
2023-05-07T19:48:38.049Z,14.40
2023-05-07T19:54:32.840Z,14.30
2023-05-07T20:06:43.204Z,14.30
2023-05-07T20:11:29.853Z,14.40
2023-05-07T20:16:45.381Z,14.50
2023-05-07T20:22:02.600Z,14.60
2023-05-07T20:27:37.162Z,14.60
2023-05-07T20:33:03.688Z,14.60
2023-05-07T20:38:38.489Z,14.60
2023-05-07T20:44:05.668Z,14.50
2023-05-07T20:49:33.274Z,14.50
2023-05-07T20:55:10.674Z,14.40
2023-05-07T21:00:37.570Z,14.40
2023-05-07T21:06:04.455Z,14.40
2023-05-07T21:11:31.131Z,14.40
2023-05-07T21:16:41.562Z,14.30
2023-05-07T21:21:44.358Z,14.30
2023-05-07T21:26:48.282Z,14.30
2023-05-07T21:31:50.601Z,14.30
2023-05-07T21:36:52.575Z,14.20
2023-05-07T21:41:59.054Z,14.30
2023-05-07T21:47:01.634Z,14.30
2023-05-07T21:52:03.702Z,14.30
2023-05-07T21:57:10.625Z,14.20
2023-05-07T22:02:16.076Z,14.20
2023-05-07T22:07:22.178Z,14.10
2023-05-07T22:12:28.373Z,14.10
2023-05-07T22:17:37.378Z,14.10
2023-05-07T22:22:52.282Z,14.00
2023-05-07T22:27:59.773Z,13.90
2023-05-07T22:33:12.685Z,13.90
2023-05-07T22:38:15.070Z,13.90
2023-05-07T22:43:18.548Z,13.90
2023-05-07T22:48:21.682Z,13.80
2023-05-07T22:53:23.572Z,13.80
2023-05-07T22:58:27.666Z,13.80
2023-05-07T23:03:29.895Z,13.70
2023-05-07T23:08:32.384Z,13.80
2023-05-07T23:13:35.584Z,13.70
2023-05-07T23:18:37.343Z,13.60
2023-05-07T23:23:39.484Z,13.60
2023-05-07T23:28:42.724Z,13.70
2023-05-07T23:33:44.709Z,13.70
2023-05-07T23:38:46.852Z,13.70
2023-05-07T23:43:49.850Z,13.70
2023-05-07T23:48:51.837Z,13.70
2023-05-07T23:53:53.954Z,13.70
2023-05-07T23:58:57.365Z,13.60
